Terminal Aerodrome Forecast
Issued by NWS Paducah, KY

Home | Current Version | Previous Version | Text Only | Print | Product List | Glossary Off
Versions: 1 2 3 4 5 6 7 8 9 10 11 12 13 14 15 16 17

021
FTUS43 KPAH 211529 AAA
TAFEVV
TAF AMD
KEVV 211529Z 2115/2212 16007KT P6SM SCT060 BKN200
     FM220600 16009G15KT P6SM BKN035 OVC120=

USA.gov is the U.S. government's official web portal to all federal, state and local government web resources and services.